Time;durP1;ratioP1;P1;durP2;ratioP2;P2;SDS_P1;SDS_P2;PMS_P1;PMS_P2;Temp;Humidity;BMP_temperature;BMP_pressure;BME280_temperature;BME280_humidity;BME280_pressure;Samples;Min_cycle;Max_cycle;Signal;HPM_P1;HPM_P2
2022/12/29 00:01:17;;;;;;;21.70;2.55;;;;;;;;;;5024090;28;20088;-73
2022/12/29 00:03:46;;;;;;;16.88;2.75;;;;;;;;;;5021419;28;20129;-72
2022/12/29 00:06:11;;;;;;;21.63;3.28;;;;;;;;;;5018900;28;20536;-73
2022/12/29 00:08:39;;;;;;;16.20;2.30;;;;;;;;;;5027696;28;20128;-73
2022/12/29 00:11:15;;;;;;;25.17;2.72;;;;;;;;;;5019773;28;20466;-73
2022/12/29 00:16:26;;;;;;;11.52;2.10;;;;;;;;;;5023197;28;20060;-73
2022/12/29 00:18:51;;;;;;;11.52;2.90;;;;;;;;;;5015583;28;20283;-73
2022/12/29 00:35:10;;;;;;;11.82;2.67;;;;;;;;;;5017999;28;20037;-75
2022/12/29 00:45:56;;;;;;;14.77;3.33;;;;;;;;;;5020240;28;20120;-75
2022/12/29 00:51:06;;;;;;;22.42;2.58;;;;;;;;;;5019465;28;20142;-75
2022/12/29 00:53:32;;;;;;;22.27;3.03;;;;;;;;;;5016505;28;20029;-74
2022/12/29 00:55:57;;;;;;;15.30;3.22;;;;;;;;;;5028113;28;20504;-74
2022/12/29 00:58:23;;;;;;;20.10;3.67;;;;;;;;;;5026843;28;20029;-74
2022/12/29 01:00:48;;;;;;;19.77;3.17;;;;;;;;;;5024196;28;20465;-75
2022/12/29 01:03:13;;;;;;;24.05;3.42;;;;;;;;;;5030514;28;20029;-74
2022/12/29 01:05:39;;;;;;;20.38;3.40;;;;;;;;;;5021120;28;20088;-73
2022/12/29 01:08:04;;;;;;;21.10;3.45;;;;;;;;;;5021343;28;20048;-75
2022/12/29 01:10:30;;;;;;;21.63;2.70;;;;;;;;;;5017917;28;20052;-74
2022/12/29 01:12:55;;;;;;;25.58;3.00;;;;;;;;;;5017300;28;20069;-73
2022/12/29 01:15:21;;;;;;;24.35;4.05;;;;;;;;;;5015950;28;20118;-73
2022/12/29 01:17:46;;;;;;;26.88;3.67;;;;;;;;;;5023693;28;20107;-74
2022/12/29 01:20:12;;;;;;;22.70;3.58;;;;;;;;;;5015228;28;20077;-74
2022/12/29 01:22:38;;;;;;;24.45;3.05;;;;;;;;;;5022017;28;20377;-74
2022/12/29 01:25:04;;;;;;;16.55;3.00;;;;;;;;;;5016377;28;20041;-75
2022/12/29 01:27:29;;;;;;;13.75;2.75;;;;;;;;;;5025472;28;20029;-75
2022/12/29 01:29:55;;;;;;;29.85;2.95;;;;;;;;;;5021110;28;20505;-73
2022/12/29 01:32:20;;;;;;;17.35;2.90;;;;;;;;;;5023761;28;20080;-73
2022/12/29 01:34:45;;;;;;;18.85;2.45;;;;;;;;;;5023633;28;20033;-73
2022/12/29 01:37:11;;;;;;;18.77;3.15;;;;;;;;;;5021692;28;20034;-74
2022/12/29 01:39:37;;;;;;;23.70;2.65;;;;;;;;;;5016616;28;20040;-74
2022/12/29 01:42:02;;;;;;;10.60;1.98;;;;;;;;;;5018534;28;20508;-74
2022/12/29 01:44:50;;;;;;;16.17;2.72;;;;;;;;;;5013871;28;20393;-74
2022/12/29 01:47:32;;;;;;;18.55;2.70;;;;;;;;;;5022249;28;20041;-73
2022/12/29 01:50:08;;;;;;;16.55;2.28;;;;;;;;;;5019014;28;20116;-73
2022/12/29 01:52:35;;;;;;;16.60;2.63;;;;;;;;;;5025352;28;20040;-73
2022/12/29 01:55:01;;;;;;;21.08;3.38;;;;;;;;;;5026073;28;20030;-73
2022/12/29 01:57:34;;;;;;;13.30;2.17;;;;;;;;;;5025956;28;20029;-73
2022/12/29 02:00:08;;;;;;;24.23;3.15;;;;;;;;;;5017712;28;20036;-73
2022/12/29 02:02:33;;;;;;;;;;;;;;;;;;5021974;28;20034;-74
2022/12/29 02:05:03;;;;;;;14.50;2.13;;;;;;;;;;5019115;28;20364;-73
2022/12/29 02:07:28;;;;;;;23.23;2.33;;;;;;;;;;5017425;28;20455;-73
2022/12/29 02:09:55;;;;;;;16.05;1.92;;;;;;;;;;5031750;28;20148;-74
2022/12/29 02:12:21;;;;;;;15.70;2.88;;;;;;;;;;5024575;28;20025;-74
2022/12/29 02:14:49;;;;;;;16.70;2.53;;;;;;;;;;5020505;28;20041;-74
2022/12/29 02:17:31;;;;;;;9.73;1.88;;;;;;;;;;5026087;28;20068;-74
2022/12/29 02:19:57;;;;;;;11.68;2.80;;;;;;;;;;5029364;28;20049;-74
2022/12/29 02:22:41;;;;;;;24.65;2.65;;;;;;;;;;5028550;28;20037;-74
2022/12/29 02:25:22;;;;;;;23.02;3.15;;;;;;;;;;5032013;28;20040;-74
2022/12/29 02:27:53;;;;;;;14.07;2.92;;;;;;;;;;5029934;28;20048;-74
2022/12/29 02:30:36;;;;;;;15.73;2.72;;;;;;;;;;5033286;28;20040;-73
2022/12/29 02:33:05;;;;;;;8.40;1.70;;;;;;;;;;5022450;28;20041;-74
2022/12/29 02:35:46;;;;;;;12.23;2.10;;;;;;;;;;5025896;28;20121;-74
2022/12/29 02:38:33;;;;;;;11.15;2.78;;;;;;;;;;5046755;28;20390;-74
2022/12/29 02:41:08;;;;;;;22.90;4.72;;;;;;;;;;5019184;28;20045;-74
2022/12/29 02:43:36;;;;;;;9.43;1.77;;;;;;;;;;5016542;28;20049;-73
2022/12/29 02:46:30;;;;;;;13.95;2.15;;;;;;;;;;5020252;28;20044;-74
2022/12/29 02:49:33;;;;;;;10.48;1.75;;;;;;;;;;5021674;28;20058;-74
2022/12/29 02:52:05;;;;;;;10.27;2.15;;;;;;;;;;4984997;28;20041;-74
2022/12/29 02:54:40;;;;;;;8.07;1.95;;;;;;;;;;5021636;28;20092;-74
2022/12/29 02:57:32;;;;;;;9.40;2.17;;;;;;;;;;5032581;28;20029;-75
2022/12/29 03:00:07;;;;;;;11.13;1.92;;;;;;;;;;5028975;28;20053;-74
2022/12/29 03:02:45;;;;;;;14.75;1.95;;;;;;;;;;5011271;28;20046;-74
2022/12/29 03:05:31;;;;;;;14.40;2.28;;;;;;;;;;5025618;28;20042;-74
2022/12/29 03:08:18;;;;;;;16.92;1.80;;;;;;;;;;5028892;28;20053;-74
2022/12/29 03:10:56;;;;;;;15.23;1.95;;;;;;;;;;5024381;28;20034;-74
2022/12/29 03:16:37;;;;;;;14.85;1.70;;;;;;;;;;5017588;28;20563;-74
2022/12/29 03:19:18;;;;;;;13.93;1.90;;;;;;;;;;5022547;28;20046;-74
2022/12/29 03:24:38;;;;;;;10.75;1.45;;;;;;;;;;5025160;28;20112;-74
2022/12/29 03:27:06;;;;;;;14.93;1.33;;;;;;;;;;5025535;28;20474;-74
2022/12/29 03:29:36;;;;;;;8.20;1.08;;;;;;;;;;5015264;28;20044;-74
2022/12/29 03:32:03;;;;;;;11.30;1.20;;;;;;;;;;5017811;28;20492;-74
2022/12/29 03:34:30;;;;;;;9.57;1.55;;;;;;;;;;5025525;28;20044;-73
2022/12/29 03:37:06;;;;;;;7.78;1.10;;;;;;;;;;5020044;28;20038;-73
2022/12/29 03:39:31;;;;;;;3.85;1.02;;;;;;;;;;5027023;28;20041;-73
2022/12/29 03:42:03;;;;;;;6.88;1.30;;;;;;;;;;5025503;28;20509;-73
2022/12/29 03:44:33;;;;;;;9.20;1.20;;;;;;;;;;5035563;28;20025;-73
2022/12/29 03:46:58;;;;;;;10.85;1.00;;;;;;;;;;5022615;28;20080;-73
2022/12/29 03:49:24;;;;;;;6.95;1.27;;;;;;;;;;5016848;28;20089;-74
2022/12/29 03:51:49;;;;;;;8.75;1.00;;;;;;;;;;5016320;28;20037;-73
2022/12/29 03:54:15;;;;;;;4.93;0.60;;;;;;;;;;5020659;28;20033;-74
2022/12/29 03:56:40;;;;;;;1.67;0.60;;;;;;;;;;5018996;28;20076;-74
2022/12/29 03:59:05;;;;;;;1.98;0.57;;;;;;;;;;5019001;28;20044;-74
2022/12/29 04:01:31;;;;;;;6.15;0.98;;;;;;;;;;5024207;28;20095;-74
2022/12/29 04:03:56;;;;;;;4.28;0.70;;;;;;;;;;5018396;28;20061;-74
2022/12/29 04:06:21;;;;;;;5.22;0.85;;;;;;;;;;5022124;28;20145;-74
2022/12/29 04:08:47;;;;;;;2.60;0.70;;;;;;;;;;5027730;28;20037;-74
2022/12/29 04:11:12;;;;;;;3.25;0.50;;;;;;;;;;5018972;28;20042;-74
2022/12/29 04:13:40;;;;;;;1.92;0.30;;;;;;;;;;5021938;28;20454;-74
2022/12/29 04:16:06;;;;;;;3.67;0.60;;;;;;;;;;5025007;28;20061;-74
2022/12/29 04:18:32;;;;;;;2.10;0.63;;;;;;;;;;5023252;28;20033;-74
2022/12/29 04:21:00;;;;;;;4.97;0.82;;;;;;;;;;5021482;28;20034;-74
2022/12/29 04:23:27;;;;;;;10.23;0.88;;;;;;;;;;5024440;28;20041;-75
2022/12/29 04:25:52;;;;;;;4.20;0.77;;;;;;;;;;5022587;28;20037;-74
2022/12/29 04:28:18;;;;;;;2.63;0.68;;;;;;;;;;5027839;28;20034;-74
2022/12/29 04:30:44;;;;;;;3.33;0.70;;;;;;;;;;5025550;28;20037;-74
2022/12/29 04:33:09;;;;;;;4.75;0.80;;;;;;;;;;5026453;28;20068;-74
2022/12/29 04:35:35;;;;;;;4.63;0.68;;;;;;;;;;5021873;28;20088;-74
2022/12/29 04:38:01;;;;;;;6.20;1.00;;;;;;;;;;5019023;28;20113;-74
2022/12/29 04:40:26;;;;;;;1.17;0.60;;;;;;;;;;5016591;28;20079;-75
2022/12/29 04:42:52;;;;;;;3.00;0.70;;;;;;;;;;5002978;28;20083;-74
2022/12/29 04:45:17;;;;;;;1.65;0.68;;;;;;;;;;5026680;28;20523;-75
2022/12/29 04:47:43;;;;;;;3.95;0.70;;;;;;;;;;5024456;28;20030;-74
2022/12/29 04:50:08;;;;;;;6.80;0.85;;;;;;;;;;5019411;28;20141;-74
2022/12/29 04:52:34;;;;;;;2.78;0.68;;;;;;;;;;5022352;28;20399;-74
2022/12/29 04:54:59;;;;;;;3.42;0.98;;;;;;;;;;5030362;28;20045;-73
2022/12/29 04:57:25;;;;;;;1.92;0.70;;;;;;;;;;5020931;28;20056;-73
2022/12/29 04:59:51;;;;;;;3.47;0.57;;;;;;;;;;5030829;28;20488;-74
2022/12/29 05:02:16;;;;;;;3.22;0.70;;;;;;;;;;5028540;28;20037;-73
2022/12/29 05:04:42;;;;;;;7.95;0.77;;;;;;;;;;5017686;28;20601;-74
2022/12/29 05:07:07;;;;;;;2.85;0.60;;;;;;;;;;5027348;28;20434;-74
2022/12/29 05:09:33;;;;;;;2.05;0.60;;;;;;;;;;5016365;28;20088;-74
2022/12/29 05:11:58;;;;;;;4.25;0.50;;;;;;;;;;5016585;28;20033;-74
2022/12/29 05:14:24;;;;;;;1.90;0.60;;;;;;;;;;5014543;28;20038;-74
2022/12/29 05:16:49;;;;;;;6.13;0.70;;;;;;;;;;5024777;28;20033;-73
2022/12/29 05:19:16;;;;;;;3.17;0.75;;;;;;;;;;5016807;28;20084;-74
2022/12/29 05:21:41;;;;;;;2.28;0.80;;;;;;;;;;5026297;28;20497;-74
2022/12/29 05:24:07;;;;;;;4.22;0.82;;;;;;;;;;5018139;28;20038;-74
2022/12/29 05:26:32;;;;;;;1.55;0.32;;;;;;;;;;5018880;28;20049;-74
2022/12/29 05:28:58;;;;;;;4.07;0.75;;;;;;;;;;5024675;28;20037;-74
2022/12/29 05:31:23;;;;;;;1.75;0.40;;;;;;;;;;5022714;28;20488;-74
2022/12/29 05:33:48;;;;;;;1.92;0.40;;;;;;;;;;5026452;28;20067;-74
2022/12/29 05:36:14;;;;;;;3.15;0.70;;;;;;;;;;5012188;28;20041;-73
2022/12/29 05:38:39;;;;;;;1.90;0.50;;;;;;;;;;5025659;28;20500;-74
2022/12/29 05:41:05;;;;;;;3.13;0.80;;;;;;;;;;5022244;28;20040;-74
2022/12/29 05:43:30;;;;;;;6.32;0.60;;;;;;;;;;5017161;28;20049;-74
2022/12/29 05:45:56;;;;;;;3.40;0.68;;;;;;;;;;5028949;28;20065;-75
2022/12/29 05:48:21;;;;;;;2.35;0.65;;;;;;;;;;5023309;28;20034;-74
2022/12/29 05:50:48;;;;;;;1.00;0.50;;;;;;;;;;5029199;28;20043;-74
2022/12/29 05:53:13;;;;;;;8.50;0.88;;;;;;;;;;5025768;28;20060;-74
2022/12/29 05:55:39;;;;;;;4.60;0.70;;;;;;;;;;5023645;28;20474;-74
2022/12/29 05:58:04;;;;;;;2.08;0.68;;;;;;;;;;5022057;28;20115;-74
2022/12/29 06:00:29;;;;;;;3.20;0.77;;;;;;;;;;5025927;28;20132;-74
2022/12/29 06:02:55;;;;;;;1.88;0.80;;;;;;;;;;5024107;28;20033;-74
2022/12/29 06:05:20;;;;;;;1.95;0.73;;;;;;;;;;5026112;28;20102;-75
2022/12/29 06:07:46;;;;;;;2.20;0.57;;;;;;;;;;5021910;28;20037;-74
2022/12/29 06:10:11;;;;;;;5.97;0.90;;;;;;;;;;5023595;28;20034;-74
2022/12/29 06:12:37;;;;;;;4.38;0.73;;;;;;;;;;5022719;28;20124;-73
2022/12/29 06:15:03;;;;;;;2.10;0.60;;;;;;;;;;5024521;28;20033;-73
2022/12/29 06:17:28;;;;;;;5.15;1.00;;;;;;;;;;5025315;28;20026;-73
2022/12/29 06:19:53;;;;;;;3.90;0.63;;;;;;;;;;5024857;28;20061;-73
2022/12/29 06:22:19;;;;;;;3.60;0.68;;;;;;;;;;5026766;28;20037;-73
2022/12/29 06:24:44;;;;;;;10.68;0.80;;;;;;;;;;5031376;28;20068;-73
2022/12/29 06:27:09;;;;;;;2.72;0.95;;;;;;;;;;5025975;28;20082;-73
2022/12/29 06:29:36;;;;;;;2.50;0.60;;;;;;;;;;5024668;28;20037;-73
2022/12/29 06:32:03;;;;;;;3.30;1.00;;;;;;;;;;5028064;28;20033;-73
2022/12/29 06:34:29;;;;;;;3.78;0.88;;;;;;;;;;5017888;28;20402;-73
2022/12/29 06:36:54;;;;;;;6.10;1.05;;;;;;;;;;5016783;28;20038;-73
2022/12/29 06:39:20;;;;;;;3.50;1.08;;;;;;;;;;5016402;28;20041;-73
2022/12/29 06:41:45;;;;;;;3.67;1.33;;;;;;;;;;5020378;28;20045;-73
2022/12/29 06:44:10;;;;;;;9.05;1.52;;;;;;;;;;5026424;28;21251;-73
2022/12/29 06:46:36;;;;;;;6.90;1.30;;;;;;;;;;5025129;28;20026;-73
2022/12/29 06:49:01;;;;;;;3.35;1.63;;;;;;;;;;5016015;28;20121;-73
2022/12/29 06:51:27;;;;;;;2.30;0.77;;;;;;;;;;5012283;28;20026;-73
2022/12/29 06:53:52;;;;;;;2.08;0.90;;;;;;;;;;5025315;28;20468;-73
2022/12/29 06:56:18;;;;;;;3.50;1.00;;;;;;;;;;5020293;28;20113;-73
2022/12/29 06:58:43;;;;;;;2.90;0.98;;;;;;;;;;5021939;28;20393;-73
2022/12/29 07:01:08;;;;;;;2.05;0.80;;;;;;;;;;5021467;28;20073;-73
2022/12/29 07:03:34;;;;;;;4.50;1.00;;;;;;;;;;5026615;28;20038;-73
2022/12/29 07:05:59;;;;;;;8.52;1.42;;;;;;;;;;5020727;28;20034;-73
2022/12/29 07:08:25;;;;;;;7.32;1.35;;;;;;;;;;5020960;28;20137;-73
2022/12/29 07:10:50;;;;;;;8.75;1.30;;;;;;;;;;5019255;28;20049;-74
2022/12/29 07:13:15;;;;;;;5.50;1.45;;;;;;;;;;5017975;28;20113;-73
2022/12/29 07:15:41;;;;;;;5.40;1.17;;;;;;;;;;5033156;28;20087;-73
2022/12/29 07:18:06;;;;;;;3.17;1.33;;;;;;;;;;5026274;28;20037;-73
2022/12/29 07:20:32;;;;;;;3.30;0.95;;;;;;;;;;5019736;28;20046;-73
2022/12/29 07:22:57;;;;;;;10.32;1.55;;;;;;;;;;5018961;28;20041;-74
2022/12/29 07:25:23;;;;;;;3.95;1.10;;;;;;;;;;5016212;28;20065;-74
2022/12/29 07:27:49;;;;;;;4.00;1.27;;;;;;;;;;5017128;28;20082;-74
2022/12/29 07:30:15;;;;;;;8.10;1.38;;;;;;;;;;5021455;28;20513;-74
2022/12/29 07:32:40;;;;;;;4.60;1.15;;;;;;;;;;5020334;28;20045;-74
2022/12/29 07:35:06;;;;;;;4.65;1.05;;;;;;;;;;5027918;28;20091;-73
2022/12/29 07:37:31;;;;;;;8.35;1.45;;;;;;;;;;5020866;28;20037;-74
2022/12/29 07:39:57;;;;;;;4.68;1.33;;;;;;;;;;5029165;28;20049;-75
2022/12/29 07:42:22;;;;;;;7.97;1.45;;;;;;;;;;5026559;28;20474;-74
2022/12/29 07:44:50;;;;;;;7.63;1.20;;;;;;;;;;5025957;28;20033;-75
2022/12/29 07:47:15;;;;;;;8.35;1.50;;;;;;;;;;5019710;28;20033;-75
2022/12/29 07:49:40;;;;;;;11.45;1.35;;;;;;;;;;4981026;28;1181948;-75
2022/12/29 07:52:06;;;;;;;3.63;0.80;;;;;;;;;;5024830;28;20381;-75
2022/12/29 07:54:31;;;;;;;5.40;1.15;;;;;;;;;;5020335;28;20722;-75
2022/12/29 07:56:59;;;;;;;6.57;1.77;;;;;;;;;;5021912;28;20041;-75
2022/12/29 07:59:25;;;;;;;10.68;1.45;;;;;;;;;;5024536;28;20052;-74
2022/12/29 08:01:50;;;;;;;4.43;0.90;;;;;;;;;;5023341;28;20041;-75
2022/12/29 08:04:16;;;;;;;6.10;1.05;;;;;;;;;;5016872;28;20390;-75
2022/12/29 08:06:41;;;;;;;9.77;1.38;;;;;;;;;;5011327;28;20117;-75
2022/12/29 08:09:08;;;;;;;4.97;0.90;;;;;;;;;;5019040;28;20065;-75
2022/12/29 08:11:33;;;;;;;2.05;0.70;;;;;;;;;;5023052;28;20106;-75
2022/12/29 08:13:59;;;;;;;4.75;1.50;;;;;;;;;;5022430;28;20489;-75
2022/12/29 08:16:24;;;;;;;6.45;0.95;;;;;;;;;;5023008;28;20137;-75
2022/12/29 08:18:49;;;;;;;3.78;0.82;;;;;;;;;;5021422;28;20112;-75
2022/12/29 08:21:15;;;;;;;3.90;1.80;;;;;;;;;;5021791;28;20116;-75
2022/12/29 08:23:40;;;;;;;4.25;1.35;;;;;;;;;;5024247;28;20405;-74
2022/12/29 08:26:06;;;;;;;5.25;1.70;;;;;;;;;;5023588;28;20458;-74
2022/12/29 08:28:32;;;;;;;7.45;1.67;;;;;;;;;;5017791;28;20046;-74
2022/12/29 08:30:59;;;;;;;4.97;1.17;;;;;;;;;;5013459;28;20070;-74
2022/12/29 08:33:25;;;;;;;11.18;1.30;;;;;;;;;;5013280;28;20026;-74
2022/12/29 08:35:50;;;;;;;3.85;1.08;;;;;;;;;;5014057;28;20042;-74
2022/12/29 08:38:16;;;;;;;3.92;0.75;;;;;;;;;;5014127;28;20096;-76
2022/12/29 08:40:41;;;;;;;13.80;1.90;;;;;;;;;;5014094;28;20026;-75
2022/12/29 08:43:07;;;;;;;4.97;1.48;;;;;;;;;;5013246;28;20068;-75
2022/12/29 08:45:32;;;;;;;8.27;1.35;;;;;;;;;;5014140;28;20069;-76
2022/12/29 08:47:57;;;;;;;12.38;2.55;;;;;;;;;;5013978;28;20440;-75
2022/12/29 08:50:23;;;;;;;4.18;1.27;;;;;;;;;;5045689;28;20054;-74
2022/12/29 08:52:48;;;;;;;5.85;1.30;;;;;;;;;;5013686;28;20049;-74
2022/12/29 08:55:14;;;;;;;5.47;1.80;;;;;;;;;;5013946;28;20029;-75
2022/12/29 08:57:39;;;;;;;5.45;1.15;;;;;;;;;;4995323;28;20462;-75
2022/12/29 09:00:05;;;;;;;8.95;1.10;;;;;;;;;;5012966;28;20033;-74
2022/12/29 09:02:31;;;;;;;9.70;1.40;;;;;;;;;;5012190;28;20065;-75
2022/12/29 09:05:00;;;;;;;9.70;1.40;;;;;;;;;;5013751;28;20478;-75
2022/12/29 09:07:26;;;;;;;12.15;1.88;;;;;;;;;;5018014;28;20053;-74
2022/12/29 09:09:51;;;;;;;4.22;1.35;;;;;;;;;;5002562;28;20101;-74
2022/12/29 09:12:17;;;;;;;4.65;1.65;;;;;;;;;;5019967;28;20069;-75
2022/12/29 09:14:44;;;;;;;7.55;1.65;;;;;;;;;;5009536;28;20042;-76
2022/12/29 09:19:54;;;;;;;11.30;2.75;;;;;;;;;;5006377;28;20048;-75
2022/12/29 09:22:20;;;;;;;22.15;8.90;;;;;;;;;;5014184;28;20038;-75
2022/12/29 09:24:45;;;;;;;20.23;4.85;;;;;;;;;;5016819;28;20307;-75
2022/12/29 09:27:10;;;;;;;15.60;5.57;;;;;;;;;;5013962;28;20135;-76
2022/12/29 09:29:36;;;;;;;20.88;5.00;;;;;;;;;;5011973;28;20402;-75
2022/12/29 09:32:01;;;;;;;13.02;4.40;;;;;;;;;;5011380;28;20038;-75
2022/12/29 09:34:27;;;;;;;8.77;1.92;;;;;;;;;;5022460;28;20453;-75
2022/12/29 09:36:52;;;;;;;3.17;1.23;;;;;;;;;;4907873;28;20056;-75
2022/12/29 09:39:18;;;;;;;12.25;2.03;;;;;;;;;;4849472;28;20046;-75
2022/12/29 09:41:51;;;;;;;14.88;1.80;;;;;;;;;;5009472;28;20106;-76
2022/12/29 09:44:23;;;;;;;9.20;1.55;;;;;;;;;;4989485;28;20088;-76
2022/12/29 09:46:51;;;;;;;9.40;1.60;;;;;;;;;;4979150;28;20030;-76
2022/12/29 09:49:40;;;;;;;11.32;2.88;;;;;;;;;;4991247;28;20401;-78
2022/12/29 09:52:15;;;;;;;6.22;2.13;;;;;;;;;;5015844;28;20413;-77
2022/12/29 09:54:48;;;;;;;8.90;2.35;;;;;;;;;;5005260;28;20371;-77
2022/12/29 09:57:21;;;;;;;7.50;2.28;;;;;;;;;;4822944;28;20038;-76
2022/12/29 09:59:48;;;;;;;5.13;1.88;;;;;;;;;;5009330;28;20041;-77
2022/12/29 10:02:26;;;;;;;10.73;1.40;;;;;;;;;;5018855;28;20042;-77
2022/12/29 10:04:51;;;;;;;8.00;1.20;;;;;;;;;;5017080;28;20053;-77
2022/12/29 10:07:50;;;;;;;4.82;1.20;;;;;;;;;;5021969;28;20053;-77
2022/12/29 10:10:16;;;;;;;16.00;1.92;;;;;;;;;;5010939;28;20046;-76
2022/12/29 10:12:44;;;;;;;15.35;2.22;;;;;;;;;;5013648;28;20526;-77
2022/12/29 10:15:15;;;;;;;14.20;2.45;;;;;;;;;;5003963;28;20037;-77
2022/12/29 10:17:52;;;;;;;10.55;2.03;;;;;;;;;;5015908;28;20033;-76
2022/12/29 10:20:43;;;;;;;9.05;1.55;;;;;;;;;;5018003;28;20041;-76
2022/12/29 10:23:20;;;;;;;9.40;1.90;;;;;;;;;;5011128;28;20042;-77
2022/12/29 10:25:46;;;;;;;9.77;1.92;;;;;;;;;;5026836;28;20477;-76
2022/12/29 10:28:33;;;;;;;11.10;1.90;;;;;;;;;;5021369;28;20084;-76
2022/12/29 10:31:00;;;;;;;22.73;2.33;;;;;;;;;;5016251;28;20045;-76
2022/12/29 10:33:41;;;;;;;10.93;2.05;;;;;;;;;;5019936;28;20041;-76
2022/12/29 10:36:39;;;;;;;13.73;2.53;;;;;;;;;;5019103;28;20038;-76
2022/12/29 10:39:29;;;;;;;15.35;2.42;;;;;;;;;;5016534;28;20461;-75
2022/12/29 10:42:08;;;;;;;15.95;2.65;;;;;;;;;;5015097;28;20124;-75
2022/12/29 10:44:34;;;;;;;16.45;2.45;;;;;;;;;;5016557;28;20038;-75
2022/12/29 10:47:04;;;;;;;13.32;2.40;;;;;;;;;;5021419;28;20095;-75
2022/12/29 10:49:30;;;;;;;12.63;1.73;;;;;;;;;;5026119;28;20490;-75
2022/12/29 10:51:58;;;;;;;17.23;2.45;;;;;;;;;;5046613;28;20441;-77
2022/12/29 10:54:30;;;;;;;10.05;1.75;;;;;;;;;;5017545;28;20061;-78
2022/12/29 10:57:14;;;;;;;20.02;2.50;;;;;;;;;;5007098;28;20462;-76
2022/12/29 10:59:39;;;;;;;;;;;;;;;;;;5013588;28;20045;-79
2022/12/29 11:02:04;;;;;;;20.38;2.33;;;;;;;;;;5015005;28;19917;-79
2022/12/29 11:04:52;;;;;;;13.93;2.38;;;;;;;;;;5013534;28;20049;-78
2022/12/29 11:07:19;;;;;;;10.63;1.88;;;;;;;;;;5013398;28;20037;-75
2022/12/29 11:09:46;;;;;;;11.10;1.50;;;;;;;;;;5011822;28;20120;-78
2022/12/29 11:12:37;;;;;;;14.48;2.33;;;;;;;;;;5018228;28;20168;-78
2022/12/29 11:15:07;;;;;;;8.02;1.52;;;;;;;;;;5020407;28;20053;-78
2022/12/29 11:17:47;;;;;;;7.60;1.70;;;;;;;;;;5011040;28;20038;-77
2022/12/29 11:20:38;;;;;;;8.90;1.30;;;;;;;;;;5020659;28;20076;-78
2022/12/29 11:23:21;;;;;;;11.52;1.75;;;;;;;;;;5014840;28;20099;-78
2022/12/29 11:25:46;;;;;;;10.13;1.80;;;;;;;;;;5015913;28;20042;-78
2022/12/29 11:28:16;;;;;;;10.20;2.05;;;;;;;;;;5007077;28;20832;-78
2022/12/29 11:30:42;;;;;;;8.32;1.10;;;;;;;;;;5013298;28;20440;-77
2022/12/29 11:33:08;;;;;;;12.20;1.83;;;;;;;;;;5020449;28;20041;-79
2022/12/29 11:35:34;;;;;;;8.80;1.73;;;;;;;;;;5024190;28;20080;-77
2022/12/29 11:38:00;;;;;;;5.15;1.58;;;;;;;;;;5025912;28;20068;-78
2022/12/29 11:40:25;;;;;;;10.70;1.33;;;;;;;;;;5019374;28;20119;-77
2022/12/29 11:42:54;;;;;;;7.72;1.75;;;;;;;;;;5018216;28;20511;-78
2022/12/29 11:45:23;;;;;;;11.07;2.03;;;;;;;;;;5012851;28;20041;-79
2022/12/29 11:47:52;;;;;;;13.25;1.95;;;;;;;;;;5018881;28;20030;-79
2022/12/29 11:50:20;;;;;;;7.18;1.70;;;;;;;;;;5017560;28;20417;-79
2022/12/29 11:52:46;;;;;;;11.63;1.55;;;;;;;;;;5013401;28;20026;-78
2022/12/29 11:55:23;;;;;;;10.13;1.80;;;;;;;;;;5020067;28;20116;-78
2022/12/29 11:57:50;;;;;;;6.57;1.45;;;;;;;;;;5012806;28;20042;-78
2022/12/29 12:00:19;;;;;;;11.52;1.92;;;;;;;;;;5016438;28;20100;-78
2022/12/29 12:02:54;;;;;;;6.80;1.75;;;;;;;;;;5014076;28;20482;-79
2022/12/29 12:05:45;;;;;;;9.50;2.00;;;;;;;;;;5030906;28;20444;-79
2022/12/29 12:08:35;;;;;;;10.50;1.80;;;;;;;;;;5017564;28;20535;-78
2022/12/29 12:11:15;;;;;;;5.72;1.00;;;;;;;;;;5017300;28;20539;-78
2022/12/29 12:13:50;;;;;;;11.07;1.63;;;;;;;;;;5013650;28;20042;-78
2022/12/29 12:16:18;;;;;;;9.57;1.60;;;;;;;;;;5029894;28;20489;-78
2022/12/29 12:18:54;;;;;;;7.72;1.52;;;;;;;;;;5012968;28;20036;-78
2022/12/29 12:21:37;;;;;;;5.05;1.67;;;;;;;;;;5014594;28;20048;-79
2022/12/29 12:24:28;;;;;;;6.28;1.20;;;;;;;;;;5029562;28;20057;-79
2022/12/29 12:26:58;;;;;;;12.90;2.05;;;;;;;;;;5022490;28;20482;-79
2022/12/29 12:29:54;;;;;;;10.32;1.90;;;;;;;;;;5012876;28;20525;-78
2022/12/29 12:32:57;;;;;;;9.52;1.88;;;;;;;;;;5013928;28;20084;-78
2022/12/29 12:35:54;;;;;;;7.15;1.48;;;;;;;;;;5024814;28;20128;-78
2022/12/29 12:38:25;;;;;;;12.07;1.90;;;;;;;;;;5020831;28;20067;-78
2022/12/29 12:41:06;;;;;;;12.65;1.48;;;;;;;;;;5016259;28;20038;-78
2022/12/29 12:43:37;;;;;;;3.40;1.15;;;;;;;;;;5018011;28;20033;-78
2022/12/29 12:46:20;;;;;;;9.55;1.52;;;;;;;;;;5016001;28;20042;-78
2022/12/29 12:48:55;;;;;;;13.10;2.28;;;;;;;;;;5017448;28;20132;-77
2022/12/29 12:51:52;;;;;;;8.35;1.45;;;;;;;;;;5018936;28;20061;-78
2022/12/29 12:54:20;;;;;;;9.75;1.10;;;;;;;;;;5008883;28;20087;-77
2022/12/29 12:57:08;;;;;;;5.20;1.15;;;;;;;;;;5025752;28;20042;-78
2022/12/29 12:59:46;;;;;;;9.30;2.40;;;;;;;;;;5015638;28;20072;-78
2022/12/29 13:02:37;;;;;;;10.05;1.90;;;;;;;;;;5017214;28;20406;-77
2022/12/29 13:05:29;;;;;;;10.82;1.95;;;;;;;;;;5004336;28;20062;-77
2022/12/29 13:08:19;;;;;;;9.75;1.60;;;;;;;;;;5011002;28;20048;-77
2022/12/29 13:10:54;;;;;;;6.45;1.20;;;;;;;;;;5022388;28;20045;-79
2022/12/29 13:13:31;;;;;;;8.23;1.60;;;;;;;;;;5020754;28;20037;-78
2022/12/29 13:16:15;;;;;;;7.90;1.88;;;;;;;;;;5010699;28;20037;-78
2022/12/29 13:19:00;;;;;;;11.88;1.88;;;;;;;;;;5020007;28;20084;-75
2022/12/29 13:21:29;;;;;;;12.68;1.67;;;;;;;;;;5013791;28;20040;-77
2022/12/29 13:24:31;;;;;;;8.60;1.55;;;;;;;;;;5021329;28;20049;-78
2022/12/29 13:27:21;;;;;;;13.10;2.00;;;;;;;;;;5029313;28;20036;-76
2022/12/29 13:30:10;;;;;;;14.32;2.55;;;;;;;;;;5020646;28;20065;-77
2022/12/29 13:32:38;;;;;;;6.90;1.42;;;;;;;;;;5017568;28;20038;-77
2022/12/29 13:35:24;;;;;;;9.30;1.73;;;;;;;;;;5015314;28;20044;-76
2022/12/29 13:37:58;;;;;;;7.78;1.40;;;;;;;;;;5031688;28;20404;-76
2022/12/29 13:40:25;;;;;;;;;;;;;;;;;;5016854;28;20042;-75
2022/12/29 13:42:51;;;;;;;13.95;1.98;;;;;;;;;;5007723;28;19917;-76
2022/12/29 13:45:19;;;;;;;6.68;1.27;;;;;;;;;;5014219;28;20037;-78
2022/12/29 13:47:57;;;;;;;15.90;1.70;;;;;;;;;;5016808;28;20030;-77
2022/12/29 13:50:27;;;;;;;8.90;1.48;;;;;;;;;;5014987;28;20084;-77
2022/12/29 13:53:20;;;;;;;12.13;2.13;;;;;;;;;;5045756;28;20112;-76
2022/12/29 13:55:53;;;;;;;13.32;1.70;;;;;;;;;;5012065;28;20046;-77
2022/12/29 13:58:34;;;;;;;12.10;1.73;;;;;;;;;;5022216;28;20091;-77
2022/12/29 14:01:04;;;;;;;12.25;2.72;;;;;;;;;;5012541;28;20038;-76
2022/12/29 14:03:50;;;;;;;6.60;1.60;;;;;;;;;;5012551;28;20045;-78
2022/12/29 14:06:19;;;;;;;12.65;1.73;;;;;;;;;;5017462;28;20167;-79
2022/12/29 14:08:44;;;;;;;9.50;1.40;;;;;;;;;;5017847;28;20037;-77
2022/12/29 14:11:12;;;;;;;12.45;1.55;;;;;;;;;;5016050;28;20485;-77
2022/12/29 14:13:39;;;;;;;2.22;0.88;;;;;;;;;;5013000;28;20049;-78
2022/12/29 14:16:05;;;;;;;10.05;1.35;;;;;;;;;;5017609;28;20030;-76
2022/12/29 14:18:41;;;;;;;6.50;1.48;;;;;;;;;;5017027;28;20111;-77
2022/12/29 14:21:15;;;;;;;6.85;1.45;;;;;;;;;;5022804;28;20041;-76
2022/12/29 14:23:46;;;;;;;17.35;2.00;;;;;;;;;;5025666;28;20120;-76
2022/12/29 14:26:17;;;;;;;5.25;1.25;;;;;;;;;;5024990;28;20041;-76
2022/12/29 14:28:47;;;;;;;9.73;2.65;;;;;;;;;;5017164;28;20046;-76
2022/12/29 14:31:19;;;;;;;7.57;1.70;;;;;;;;;;5017763;28;20034;-76
2022/12/29 14:34:06;;;;;;;4.53;1.42;;;;;;;;;;5017936;28;20387;-76
2022/12/29 14:36:34;;;;;;;6.55;1.75;;;;;;;;;;5018453;28;20458;-77
2022/12/29 14:39:00;;;;;;;10.52;2.17;;;;;;;;;;5011931;28;20037;-77
2022/12/29 14:41:41;;;;;;;11.35;3.15;;;;;;;;;;5008383;28;20099;-76
2022/12/29 14:44:06;;;;;;;15.48;3.00;;;;;;;;;;5014651;28;20038;-76
2022/12/29 14:46:45;;;;;;;13.63;2.42;;;;;;;;;;5031740;28;20041;-76
2022/12/29 14:49:16;;;;;;;12.10;2.42;;;;;;;;;;5029960;28;20053;-76
2022/12/29 14:51:42;;;;;;;14.07;4.38;;;;;;;;;;5020809;28;20497;-75
2022/12/29 14:54:36;;;;;;;24.55;4.60;;;;;;;;;;5019894;28;20113;-77
2022/12/29 14:57:04;;;;;;;15.00;2.38;;;;;;;;;;5015618;28;20398;-77
2022/12/29 14:59:32;;;;;;;11.55;2.72;;;;;;;;;;5017071;28;20033;-76
2022/12/29 15:01:57;;;;;;;14.40;2.30;;;;;;;;;;5022104;28;20047;-76
2022/12/29 15:04:27;;;;;;;15.85;2.50;;;;;;;;;;5022472;28;20396;-77
2022/12/29 15:06:53;;;;;;;8.57;2.33;;;;;;;;;;5021805;28;20026;-76
2022/12/29 15:09:30;;;;;;;8.00;1.35;;;;;;;;;;5017345;28;20048;-76
2022/12/29 15:12:01;;;;;;;5.15;1.70;;;;;;;;;;5021615;28;20042;-75
2022/12/29 15:14:31;;;;;;;6.82;1.45;;;;;;;;;;5017219;28;20084;-76
2022/12/29 15:16:57;;;;;;;5.50;1.23;;;;;;;;;;5017330;28;20077;-76
2022/12/29 15:19:23;;;;;;;3.90;1.33;;;;;;;;;;5037173;28;20514;-76
2022/12/29 15:21:49;;;;;;;5.85;1.25;;;;;;;;;;5019656;28;20041;-76
2022/12/29 15:24:15;;;;;;;5.68;1.50;;;;;;;;;;5025104;28;20038;-75
2022/12/29 15:26:49;;;;;;;9.55;1.95;;;;;;;;;;5024092;28;20403;-76
2022/12/29 15:29:34;;;;;;;5.40;1.38;;;;;;;;;;5015175;28;20042;-76
2022/12/29 15:32:01;;;;;;;2.60;1.17;;;;;;;;;;5016724;28;20056;-76
2022/12/29 15:34:30;;;;;;;2.75;1.10;;;;;;;;;;5022901;28;20042;-76